Time;durP1;ratioP1;P1;durP2;ratioP2;P2;SDS_P1;SDS_P2;PMS_P1;PMS_P2;Temp;Humidity;BMP_temperature;BMP_pressure;BME280_temperature;BME280_humidity;BME280_pressure;Samples;Min_cycle;Max_cycle;Signal;HPM_P1;HPM_P2
2021/08/05 00:00:17;;;;;;;5.05;2.15;;;;;;;18.54;67.05;99414.09;2181302;40;20060;-79
2021/08/05 00:01:51;;;;;;;4.45;2.20;;;;;;;18.48;67.08;99407.66;2182591;40;20039;-79
2021/08/05 00:03:22;;;;;;;5.18;2.30;;;;;;;18.45;67.19;99412.66;2183490;40;20056;-78
2021/08/05 00:04:53;;;;;;;4.60;2.60;;;;;;;18.49;67.12;99409.31;2180299;40;20357;-79
2021/08/05 00:06:25;;;;;;;4.57;2.45;;;;;;;18.50;67.26;99415.53;2181820;40;20059;-79
2021/08/05 00:07:57;;;;;;;5.78;2.70;;;;;;;18.45;67.23;99409.94;2181680;40;20060;-79
2021/08/05 00:09:29;;;;;;;5.10;2.10;;;;;;;18.40;67.24;99407.88;2184049;40;20036;-79
2021/08/05 00:11:01;;;;;;;4.05;2.10;;;;;;;18.42;67.39;99410.38;2181972;40;20535;-78
2021/08/05 00:12:33;;;;;;;3.95;2.08;;;;;;;18.39;67.20;99406.22;2182529;40;20055;-79
2021/08/05 00:14:04;;;;;;;4.10;2.10;;;;;;;18.43;67.07;99402.03;2184781;40;20055;-78
2021/08/05 00:15:36;;;;;;;6.50;2.13;;;;;;;18.47;67.25;99400.56;2175379;41;20040;-78
2021/08/05 00:17:12;;;;;;;4.78;2.40;;;;;;;18.46;67.13;99393.50;2182391;40;20043;-79
2021/08/05 00:18:43;;;;;;;5.63;2.50;;;;;;;18.39;67.38;99404.31;2186179;40;20059;-79
2021/08/05 00:20:15;;;;;;;4.55;2.25;;;;;;;18.39;67.33;99409.72;2187605;40;20453;-79
2021/08/05 00:21:47;;;;;;;4.78;2.35;;;;;;;18.42;67.16;99403.06;2184833;40;20047;-78
2021/08/05 00:23:18;;;;;;;5.20;2.33;;;;;;;18.46;66.63;99409.72;2180131;40;20043;-79
2021/08/05 00:24:49;;;;;;;5.03;2.13;;;;;;;18.45;66.70;99397.25;2180312;40;20040;-79
2021/08/05 00:26:21;;;;;;;5.45;2.20;;;;;;;18.44;66.29;99406.41;2183258;40;20051;-79
2021/08/05 00:27:53;;;;;;;5.78;2.25;;;;;;;18.39;66.23;99398.09;2182548;40;20032;-78
2021/08/05 00:29:25;;;;;;;4.38;2.10;;;;;;;18.38;66.45;99391.03;2183325;40;20052;-78
2021/08/05 00:30:57;;;;;;;4.43;2.38;;;;;;;18.42;66.31;99389.53;2180883;40;20035;-79
2021/08/05 00:32:30;;;;;;;4.63;2.15;;;;;;;18.45;65.97;99389.13;2183186;40;20404;-79
2021/08/05 00:34:00;;;;;;;4.75;2.30;;;;;;;18.47;65.82;99378.91;2183288;40;20040;-79
2021/08/05 00:35:32;;;;;;;5.45;2.13;;;;;;;18.49;65.76;99376.84;2181905;40;20079;-79
2021/08/05 00:37:03;;;;;;;4.55;2.05;;;;;;;18.52;65.42;99381.81;2180734;40;20028;-79
2021/08/05 00:38:35;;;;;;;4.50;2.33;;;;;;;18.50;65.29;99373.09;2179851;40;20071;-79
2021/08/05 00:40:07;;;;;;;4.70;2.35;;;;;;;18.47;65.23;99373.50;2181313;40;20043;-78
2021/08/05 00:41:39;;;;;;;5.95;2.50;;;;;;;18.50;65.24;99372.25;2180973;40;20067;-78
2021/08/05 00:43:09;;;;;;;4.78;2.47;;;;;;;18.50;64.92;99375.78;2183563;40;20036;-79
2021/08/05 00:44:41;;;;;;;4.07;1.80;;;;;;;18.49;64.94;99376.84;2182559;40;20046;-79
2021/08/05 00:46:12;;;;;;;4.13;2.10;;;;;;;18.50;64.84;99373.09;2180804;40;20032;-79
2021/08/05 00:47:45;;;;;;;4.70;2.10;;;;;;;18.52;64.78;99376.41;2180107;40;20071;-78
2021/08/05 00:49:17;;;;;;;4.00;2.05;;;;;;;18.54;64.60;99371.59;2183434;40;20048;-78
2021/08/05 00:50:50;;;;;;;4.25;2.25;;;;;;;18.54;64.87;99365.38;2180298;40;20032;-79
2021/08/05 00:52:21;;;;;;;4.10;2.17;;;;;;;18.58;64.80;99368.47;2181610;40;20067;-79
2021/08/05 00:53:53;;;;;;;4.03;1.90;;;;;;;18.60;64.45;99372.63;2181847;40;20086;-78
2021/08/05 00:55:25;;;;;;;4.93;2.38;;;;;;;18.62;64.36;99369.69;2182651;40;20028;-79
2021/08/05 00:56:57;;;;;;;5.10;2.78;;;;;;;18.61;64.27;99365.34;2183551;40;20035;-79
2021/08/05 00:58:29;;;;;;;4.38;2.15;;;;;;;18.53;64.48;99372.66;2182945;40;20043;-78
2021/08/05 01:00:00;;;;;;;4.55;2.35;;;;;;;18.51;64.80;99373.91;2183684;40;20074;-79
2021/08/05 01:01:38;;;;;;;4.90;2.30;;;;;;;18.44;64.72;99373.91;2180699;40;20051;-79
2021/08/05 01:03:18;;;;;;;4.60;2.33;;;;;;;18.40;64.79;99376.22;2183002;40;20039;-79
2021/08/05 01:04:54;;;;;;;4.20;2.25;;;;;;;18.42;65.06;99370.59;2180680;40;20222;-79
2021/08/05 01:06:37;;;;;;;4.20;2.38;;;;;;;18.43;65.18;99376.84;2178020;40;20051;-79
2021/08/05 01:08:10;;;;;;;3.38;1.90;;;;;;;18.45;64.85;99383.72;2181761;40;20056;-79
2021/08/05 01:09:54;;;;;;;5.72;2.80;;;;;;;18.49;64.68;99382.25;2177564;40;20043;-79
2021/08/05 01:11:29;;;;;;;7.90;3.92;;;;;;;18.43;64.85;99385.78;2179141;40;20040;-79
2021/08/05 01:13:06;;;;;;;6.32;3.90;;;;;;;18.35;65.06;99376.03;2165331;41;20068;-78
2021/08/05 01:14:42;;;;;;;5.57;3.05;;;;;;;18.29;65.06;99385.00;2181481;40;20059;-79
2021/08/05 01:16:16;;;;;;;8.63;3.05;;;;;;;18.29;65.55;99382.28;2180167;40;20401;-79
2021/08/05 01:17:50;;;;;;;7.03;3.08;;;;;;;18.30;65.30;99377.72;2179471;40;20051;-78
2021/08/05 01:19:31;;;;;;;4.57;2.63;;;;;;;18.25;65.41;99381.06;2181293;40;20393;-79
2021/08/05 01:21:05;;;;;;;;;;;;;;;18.13;65.63;99378.19;2180454;40;20444;-79
2021/08/05 01:22:43;;;;;;;5.32;2.80;;;;;;;18.12;66.11;99379.22;2182218;40;20015;-78
2021/08/05 01:24:20;;;;;;;5.07;2.75;;;;;;;18.12;66.21;99386.47;2181516;40;20023;-79
2021/08/05 01:25:58;;;;;;;5.35;2.75;;;;;;;18.13;65.82;99380.88;2178418;40;20490;-79
2021/08/05 01:27:32;;;;;;;4.82;2.20;;;;;;;18.15;65.82;99370.66;2182042;40;20058;-78
2021/08/05 01:29:05;;;;;;;4.25;2.30;;;;;;;18.19;66.10;99373.78;2182099;40;20063;-79
2021/08/05 01:30:38;;;;;;;4.38;2.13;;;;;;;18.16;66.04;99375.03;2181463;40;20028;-79
2021/08/05 01:32:10;;;;;;;4.68;2.38;;;;;;;18.15;66.16;99373.38;2180610;40;20036;-78
2021/08/05 01:33:43;;;;;;;4.97;2.53;;;;;;;18.10;66.32;99373.19;2180681;40;20071;-78
2021/08/05 01:35:15;;;;;;;4.65;2.50;;;;;;;18.09;66.42;99368.81;2180520;40;20024;-79
2021/08/05 01:36:48;;;;;;;5.50;2.63;;;;;;;18.11;66.45;99369.44;2181574;40;20036;-78
2021/08/05 01:38:21;;;;;;;5.57;1.98;;;;;;;18.16;66.18;99369.63;2181246;40;20035;-79
2021/08/05 01:39:54;;;;;;;4.68;2.33;;;;;;;18.16;66.50;99366.09;2169292;41;20421;-79
2021/08/05 01:41:27;;;;;;;4.53;2.25;;;;;;;18.19;66.43;99371.91;2170592;41;20368;-79
2021/08/05 01:43:02;;;;;;;5.55;2.20;;;;;;;18.23;66.28;99365.03;2181626;40;20039;-78
2021/08/05 01:44:34;;;;;;;5.25;2.67;;;;;;;18.26;65.85;99371.91;2182459;40;20058;-79
2021/08/05 01:46:07;;;;;;;4.35;2.20;;;;;;;18.27;66.08;99370.03;2180107;40;20059;-78
2021/08/05 01:47:40;;;;;;;5.55;2.20;;;;;;;18.32;65.82;99364.81;2182056;40;20039;-78
2021/08/05 01:49:12;;;;;;;4.78;2.80;;;;;;;18.32;65.63;99364.81;2180629;40;20078;-78
2021/08/05 01:50:45;;;;;;;6.65;2.75;;;;;;;18.24;65.82;99368.56;2182675;40;20325;-78
2021/08/05 01:52:19;;;;;;;5.75;2.72;;;;;;;18.17;66.19;99373.19;2182910;40;20051;-78
2021/08/05 01:53:51;;;;;;;4.40;2.55;;;;;;;18.07;66.64;99371.75;2182893;40;20058;-78
2021/08/05 01:55:23;;;;;;;5.40;2.58;;;;;;;18.03;66.54;99375.06;2183296;40;20032;-78
2021/08/05 01:56:54;;;;;;;4.38;2.25;;;;;;;18.01;66.86;99367.16;2180740;40;20372;-78
2021/08/05 01:58:27;;;;;;;5.72;2.88;;;;;;;17.96;66.98;99369.66;2180603;40;20067;-78
2021/08/05 01:59:59;;;;;;;5.57;2.92;;;;;;;17.96;67.21;99376.91;2182396;40;20028;-79
2021/08/05 02:01:30;;;;;;;5.53;2.42;;;;;;;17.95;66.96;99375.25;2183475;40;20050;-79
2021/08/05 02:03:03;;;;;;;4.45;2.45;;;;;;;17.98;67.04;99372.16;2181206;40;20401;-79
2021/08/05 02:04:44;;;;;;;4.50;2.33;;;;;;;18.04;67.00;99363.22;2179102;40;20610;-79
2021/08/05 02:06:20;;;;;;;6.07;2.80;;;;;;;18.09;66.61;99363.41;2181152;40;20064;-78
2021/08/05 02:07:59;;;;;;;4.18;2.22;;;;;;;18.10;66.89;99359.66;2182843;40;20041;-77
2021/08/05 02:09:35;;;;;;;5.70;2.50;;;;;;;18.13;66.41;99366.50;2181686;40;20475;-79
2021/08/05 02:11:08;;;;;;;4.15;2.05;;;;;;;18.17;66.58;99363.16;2183421;40;20147;-79
2021/08/05 02:12:44;;;;;;;6.03;2.60;;;;;;;18.18;66.04;99359.44;2180915;40;20064;-79
2021/08/05 02:14:19;;;;;;;4.45;2.17;;;;;;;18.17;66.28;99357.75;2180815;40;20040;-79
2021/08/05 02:15:55;;;;;;;4.90;2.40;;;;;;;18.17;66.30;99355.06;2173823;41;20041;-79
2021/08/05 02:17:29;;;;;;;4.72;2.40;;;;;;;18.13;66.29;99353.84;2175802;41;20311;-79
2021/08/05 02:19:02;;;;;;;5.22;2.40;;;;;;;18.07;66.17;99357.38;2181752;40;20031;-79
2021/08/05 02:20:34;;;;;;;4.32;2.33;;;;;;;18.07;66.25;99360.06;2183459;40;20412;-79
2021/08/05 02:22:05;;;;;;;4.13;2.20;;;;;;;18.04;66.34;99353.22;2182350;40;20063;-79
2021/08/05 02:23:37;;;;;;;5.28;2.25;;;;;;;18.00;66.20;99351.97;2181828;40;20050;-79
2021/08/05 02:25:10;;;;;;;4.95;2.42;;;;;;;17.98;66.28;99353.22;2180311;40;20075;-79
2021/08/05 02:26:41;;;;;;;4.68;2.28;;;;;;;17.91;66.65;99348.63;2178992;40;20047;-79
2021/08/05 02:28:14;;;;;;;5.80;2.58;;;;;;;17.87;66.50;99346.56;2182679;40;20040;-79
2021/08/05 02:29:48;;;;;;;4.65;2.50;;;;;;;17.85;66.97;99338.66;2178722;41;20041;-79
2021/08/05 02:31:19;;;;;;;3.35;1.75;;;;;;;17.80;67.36;99340.34;2180773;40;20032;-79
2021/08/05 02:32:51;;;;;;;4.25;2.05;;;;;;;17.72;67.47;99344.88;2182624;40;20036;-79
2021/08/05 02:34:23;;;;;;;4.60;2.08;;;;;;;17.75;67.47;99338.25;2182641;40;20031;-80
2021/08/05 02:35:56;;;;;;;5.32;2.30;;;;;;;17.80;67.24;99335.75;2182837;40;20047;-79
2021/08/05 02:37:28;;;;;;;4.93;2.50;;;;;;;17.87;66.90;99333.84;2181188;40;20039;-79
2021/08/05 02:39:00;;;;;;;4.63;2.65;;;;;;;17.89;66.91;99334.47;2180808;40;20112;-79
2021/08/05 02:40:35;;;;;;;4.47;2.45;;;;;;;17.84;66.91;99337.00;2182196;40;20127;-79
2021/08/05 02:42:08;;;;;;;4.82;2.58;;;;;;;17.77;67.23;99341.56;2182420;40;20415;-76
2021/08/05 02:43:41;;;;;;;5.05;2.22;;;;;;;17.68;67.72;99338.25;2183269;40;20047;-76
2021/08/05 02:45:15;;;;;;;4.63;2.30;;;;;;;17.61;67.87;99338.25;2183686;40;20035;-79
2021/08/05 02:46:48;;;;;;;4.43;1.95;;;;;;;17.60;68.12;99333.88;2183979;40;20051;-79
2021/08/05 02:48:19;;;;;;;4.35;2.13;;;;;;;17.60;68.12;99338.47;2181140;40;20036;-79
2021/08/05 02:49:54;;;;;;;4.40;2.13;;;;;;;17.59;68.22;99331.41;2179151;40;20032;-79
2021/08/05 02:51:27;;;;;;;4.63;2.72;;;;;;;17.63;67.77;99329.94;2182679;40;20084;-79
2021/08/05 02:52:59;;;;;;;4.50;2.25;;;;;;;17.62;67.84;99334.50;2183242;40;20070;-79
2021/08/05 02:54:32;;;;;;;4.80;2.55;;;;;;;17.66;67.73;99334.09;2182697;40;20071;-79
2021/08/05 02:56:03;;;;;;;6.25;2.60;;;;;;;17.69;67.84;99334.50;2184261;40;20039;-79
2021/08/05 02:57:36;;;;;;;6.63;2.13;;;;;;;17.71;68.02;99331.59;2181876;40;20380;-79
2021/08/05 02:59:07;;;;;;;4.63;2.50;;;;;;;17.69;67.72;99329.09;2182267;40;20044;-79
2021/08/05 03:00:41;;;;;;;4.32;2.13;;;;;;;17.67;67.80;99330.34;2176234;41;20063;-79
2021/08/05 03:02:15;;;;;;;6.25;2.60;;;;;;;17.61;67.95;99329.31;2175777;41;20047;-79
2021/08/05 03:03:50;;;;;;;3.78;2.08;;;;;;;17.60;68.30;99333.88;2180281;40;20043;-77
2021/08/05 03:05:22;;;;;;;4.88;2.42;;;;;;;17.58;67.99;99332.44;2184107;40;20443;-76
2021/08/05 03:06:54;;;;;;;4.25;2.38;;;;;;;17.54;68.33;99336.56;2180975;40;20059;-79
2021/08/05 03:08:26;;;;;;;4.03;2.25;;;;;;;17.50;68.46;99329.94;2180373;40;20617;-79
2021/08/05 03:09:58;;;;;;;5.55;2.70;;;;;;;17.50;68.70;99325.34;2183697;40;20055;-79
2021/08/05 03:11:30;;;;;;;7.93;2.70;;;;;;;17.52;68.46;99328.69;2184509;40;20055;-79
2021/08/05 03:13:01;;;;;;;4.03;2.30;;;;;;;17.52;68.69;99326.00;2178715;40;20050;-79
2021/08/05 03:14:33;;;;;;;4.05;2.55;;;;;;;17.53;68.51;99324.94;2183378;40;20043;-79
2021/08/05 03:16:07;;;;;;;5.13;2.05;;;;;;;17.56;68.51;99319.16;2182537;40;20036;-79
2021/08/05 03:17:39;;;;;;;5.50;2.47;;;;;;;17.58;68.42;99316.22;2182906;40;20052;-77
2021/08/05 03:19:11;;;;;;;4.63;2.55;;;;;;;17.57;68.58;99320.78;2182618;40;20127;-77
2021/08/05 03:20:42;;;;;;;4.75;2.33;;;;;;;17.60;68.75;99324.97;2183777;40;20031;-77
2021/08/05 03:22:14;;;;;;;5.10;2.83;;;;;;;17.60;68.46;99324.97;2181835;40;20044;-78
2021/08/05 03:23:45;;;;;;;5.10;2.78;;;;;;;17.55;68.76;99324.75;2182021;40;20040;-77
2021/08/05 03:25:16;;;;;;;4.47;2.58;;;;;;;17.54;68.61;99321.22;2178545;41;20716;-77
2021/08/05 03:26:48;;;;;;;4.90;2.63;;;;;;;17.54;68.66;99314.97;2182759;40;20040;-77
2021/08/05 03:28:19;;;;;;;4.10;2.50;;;;;;;17.55;68.54;99322.88;2185155;40;20067;-77
2021/08/05 03:29:51;;;;;;;5.10;2.15;;;;;;;17.57;68.50;99315.38;2184543;40;20540;-77
2021/08/05 03:31:23;;;;;;;5.68;2.28;;;;;;;17.61;68.32;99316.63;2184806;40;20047;-77
2021/08/05 03:32:55;;;;;;;4.00;1.92;;;;;;;17.62;68.23;99317.44;2182358;40;20058;-77
2021/08/05 03:34:25;;;;;;;3.95;2.20;;;;;;;17.61;67.96;99322.03;2181798;40;20048;-77
2021/08/05 03:35:57;;;;;;;5.93;2.20;;;;;;;17.65;68.11;99321.63;2183165;40;21232;-77
2021/08/05 03:37:30;;;;;;;3.92;2.03;;;;;;;17.63;68.17;99319.13;2183274;40;20332;-77
2021/08/05 03:39:02;;;;;;;4.20;2.00;;;;;;;17.59;68.38;99316.00;2175736;41;20055;-77
2021/08/05 03:40:33;;;;;;;4.57;2.33;;;;;;;17.60;68.11;99320.38;2179624;40;20066;-77
2021/08/05 03:42:05;;;;;;;4.28;2.15;;;;;;;17.64;68.02;99311.84;2180395;40;20048;-77
2021/08/05 03:43:36;;;;;;;5.72;2.00;;;;;;;17.65;68.13;99319.75;2182366;40;20400;-76
2021/08/05 03:45:09;;;;;;;4.20;2.30;;;;;;;17.66;68.13;99317.88;2182663;40;20052;-76
2021/08/05 03:46:42;;;;;;;4.28;2.22;;;;;;;17.66;68.00;99324.13;2181889;40;20047;-76
2021/08/05 03:48:13;;;;;;;4.28;2.35;;;;;;;17.67;68.20;99322.22;2166400;41;20524;-75
2021/08/05 03:49:45;;;;;;;5.22;2.38;;;;;;;17.68;67.94;99321.19;2180584;40;20043;-76
2021/08/05 03:51:16;;;;;;;6.60;3.10;;;;;;;17.60;68.41;99319.56;2184923;40;20058;-76
2021/08/05 03:52:48;;;;;;;4.78;3.03;;;;;;;17.51;68.67;99324.31;2183929;40;20060;-77
2021/08/05 03:54:19;;;;;;;6.72;3.40;;;;;;;17.45;69.03;99323.28;2182422;40;20187;-75
2021/08/05 03:55:51;;;;;;;6.43;3.22;;;;;;;17.35;69.22;99327.44;2181330;40;20044;-75
2021/08/05 03:57:22;;;;;;;5.10;3.22;;;;;;;17.35;69.64;99327.44;2177100;40;20056;-75
2021/08/05 03:58:54;;;;;;;4.60;2.47;;;;;;;17.28;69.83;99330.97;2182018;40;20059;-75
2021/08/05 04:00:26;;;;;;;5.18;2.53;;;;;;;17.23;70.05;99328.03;2183383;40;20381;-76
2021/08/05 04:01:58;;;;;;;5.38;2.78;;;;;;;17.19;70.26;99329.50;2182867;40;20087;-75
2021/08/05 04:03:30;;;;;;;4.65;2.40;;;;;;;17.12;70.50;99318.69;2183443;40;20059;-76
2021/08/05 04:05:01;;;;;;;4.15;2.25;;;;;;;17.13;70.59;99325.75;2181710;40;20028;-75
2021/08/05 04:06:33;;;;;;;5.15;2.60;;;;;;;17.11;70.77;99325.13;2182506;40;20071;-75
2021/08/05 04:08:05;;;;;;;5.10;2.63;;;;;;;17.08;70.87;99325.53;2178707;40;20052;-75
2021/08/05 04:09:36;;;;;;;5.10;2.50;;;;;;;17.06;70.96;99327.59;2168912;41;20037;-75
2021/08/05 04:11:07;;;;;;;5.47;2.70;;;;;;;17.09;70.79;99327.19;2181504;40;20309;-75
2021/08/05 04:12:39;;;;;;;4.43;2.38;;;;;;;17.12;70.90;99329.50;2182130;40;20072;-75
2021/08/05 04:14:11;;;;;;;5.53;2.70;;;;;;;17.18;70.85;99332.41;2181359;40;20379;-75
2021/08/05 04:15:42;;;;;;;5.00;2.50;;;;;;;17.23;70.57;99333.44;2182142;40;20063;-75
2021/08/05 04:17:15;;;;;;;4.47;2.28;;;;;;;17.26;70.63;99327.66;2181002;40;20117;-75
2021/08/05 04:18:47;;;;;;;4.80;2.78;;;;;;;17.30;70.49;99328.88;2181673;40;20032;-75
2021/08/05 04:20:21;;;;;;;5.63;2.90;;;;;;;17.34;70.43;99321.19;2184148;40;20052;-77
2021/08/05 04:21:53;;;;;;;5.75;2.97;;;;;;;17.37;70.19;99331.59;2181538;40;20511;-75
2021/08/05 04:23:25;;;;;;;5.15;2.88;;;;;;;17.40;70.29;99324.94;2183723;40;20075;-75
2021/08/05 04:24:57;;;;;;;5.45;2.75;;;;;;;17.43;70.18;99325.34;2163243;41;20060;-75
2021/08/05 04:26:28;;;;;;;5.63;3.13;;;;;;;17.48;70.33;99327.44;2178636;40;20064;-78
2021/08/05 04:28:00;;;;;;;4.82;2.85;;;;;;;17.49;70.29;99331.81;2182641;40;20048;-78
2021/08/05 04:29:31;;;;;;;5.03;3.00;;;;;;;17.51;70.16;99327.03;2182553;40;20401;-78
2021/08/05 04:31:02;;;;;;;5.07;2.63;;;;;;;17.56;69.98;99326.41;2160137;41;20072;-75
2021/08/05 04:32:35;;;;;;;5.95;3.28;;;;;;;17.61;69.69;99340.97;2182057;40;20051;-75
2021/08/05 04:34:06;;;;;;;5.30;2.90;;;;;;;17.63;69.71;99335.34;2183348;40;20032;-75
2021/08/05 04:35:37;;;;;;;5.95;3.15;;;;;;;17.64;69.39;99326.19;2168897;41;20376;-75
2021/08/05 04:37:09;;;;;;;6.70;3.25;;;;;;;17.66;69.66;99340.34;2182141;40;20091;-75
2021/08/05 04:38:41;;;;;;;5.40;2.92;;;;;;;17.69;69.18;99339.06;2180546;40;20048;-76
2021/08/05 04:40:12;;;;;;;4.97;2.75;;;;;;;17.72;69.41;99333.25;2181545;40;20315;-75
2021/08/05 04:41:44;;;;;;;6.15;2.70;;;;;;;17.72;69.22;99338.66;2181272;40;20039;-75
2021/08/05 04:43:16;;;;;;;5.70;2.88;;;;;;;17.73;69.35;99333.03;2180703;40;20071;-75
2021/08/05 04:44:46;;;;;;;4.80;2.92;;;;;;;17.75;69.04;99340.97;2181646;40;20060;-75
2021/08/05 04:46:18;;;;;;;7.70;3.22;;;;;;;17.76;69.30;99338.03;2180550;40;20074;-75
2021/08/05 04:47:52;;;;;;;7.38;3.47;;;;;;;17.81;69.10;99337.41;2180919;40;20063;-75
2021/08/05 04:49:24;;;;;;;5.80;2.97;;;;;;;17.84;68.90;99339.72;2177483;40;20111;-75
2021/08/05 04:50:56;;;;;;;5.32;2.40;;;;;;;17.87;68.68;99341.97;2181413;40;20425;-75
2021/08/05 04:52:27;;;;;;;5.68;2.30;;;;;;;17.88;68.70;99338.22;2181192;40;20044;-75
2021/08/05 04:54:00;;;;;;;5.78;2.65;;;;;;;17.85;68.33;99345.94;2174425;41;20083;-75
2021/08/05 04:55:31;;;;;;;4.30;2.15;;;;;;;17.85;68.37;99343.22;2182937;40;20479;-75
2021/08/05 04:57:04;;;;;;;4.30;2.30;;;;;;;17.86;68.47;99343.00;2179464;40;20043;-76
2021/08/05 04:58:36;;;;;;;3.88;2.00;;;;;;;17.89;68.00;99348.00;2181967;40;20040;-75
2021/08/05 05:00:08;;;;;;;5.18;2.58;;;;;;;17.89;68.07;99341.78;2179343;40;20059;-76
2021/08/05 05:01:40;;;;;;;4.70;2.45;;;;;;;17.88;68.26;99346.34;2179470;40;20064;-77
2021/08/05 05:03:14;;;;;;;5.93;2.70;;;;;;;17.88;68.00;99342.81;2182260;40;20028;-75
2021/08/05 05:04:46;;;;;;;6.95;2.70;;;;;;;17.90;67.93;99340.75;2182323;40;20036;-75
2021/08/05 05:06:18;;;;;;;4.68;2.53;;;;;;;17.98;67.98;99348.66;2179510;40;20045;-75
2021/08/05 05:07:51;;;;;;;4.18;2.08;;;;;;;18.01;67.91;99340.09;2175783;41;20400;-75
2021/08/05 05:09:23;;;;;;;5.55;2.80;;;;;;;18.03;67.58;99343.44;2177257;41;20137;-75
2021/08/05 05:10:56;;;;;;;7.53;2.53;;;;;;;17.95;67.93;99338.22;2174993;41;20033;-75
2021/08/05 05:12:28;;;;;;;6.43;2.90;;;;;;;17.86;68.31;99340.31;2174103;41;20056;-75
2021/08/05 05:13:59;;;;;;;5.20;2.70;;;;;;;17.83;68.56;99345.31;2175796;41;20345;-75
2021/08/05 05:15:30;;;;;;;4.75;2.85;;;;;;;17.79;68.52;99339.47;2177413;41;20036;-75
2021/08/05 05:17:02;;;;;;;6.82;2.85;;;;;;;17.74;68.83;99347.41;2175672;41;20071;-75
2021/08/05 05:18:36;;;;;;;4.85;2.47;;;;;;;17.71;68.77;99347.81;2177225;41;20060;-77
2021/08/05 05:20:08;;;;;;;6.03;2.70;;;;;;;17.73;68.67;99337.63;2175980;41;20059;-75
2021/08/05 05:21:40;;;;;;;5.03;3.00;;;;;;;17.71;68.68;99331.59;2177481;41;20088;-75
2021/08/05 05:23:11;;;;;;;5.95;3.33;;;;;;;17.66;69.10;99329.53;2175920;41;20063;-75
2021/08/05 05:24:43;;;;;;;5.32;3.10;;;;;;;17.66;68.83;99334.09;2169173;41;20343;-76
2021/08/05 05:26:15;;;;;;;4.32;2.25;;;;;;;17.73;68.66;99332.22;2173196;41;20040;-76
2021/08/05 05:27:45;;;;;;;4.47;2.17;;;;;;;17.79;68.31;99336.78;2177039;41;20316;-76
2021/08/05 05:29:17;;;;;;;5.45;2.35;;;;;;;17.87;68.41;99338.44;2176534;41;20087;-75
2021/08/05 05:30:49;;;;;;;5.03;2.45;;;;;;;17.89;68.04;99339.91;2176750;41;20036;-76
2021/08/05 05:32:20;;;;;;;5.07;2.65;;;;;;;17.89;68.17;99339.06;2176094;40;20356;-75
2021/08/05 05:33:53;;;;;;;4.45;2.50;;;;;;;17.87;67.94;99341.97;2176512;41;20072;-75
2021/08/05 05:35:25;;;;;;;4.00;2.50;;;;;;;17.91;68.19;99335.13;2176734;41;20048;-75
2021/08/05 05:36:57;;;;;;;5.60;2.78;;;;;;;17.88;68.21;99338.22;2176015;41;20055;-76
2021/08/05 05:38:28;;;;;;;5.38;2.75;;;;;;;17.82;68.20;99330.97;2176733;41;20044;-76
2021/08/05 05:40:00;;;;;;;5.32;2.65;;;;;;;17.83;68.03;99339.91;2173816;41;20051;-76
2021/08/05 05:41:32;;;;;;;4.95;2.55;;;;;;;17.81;68.07;99331.16;2175376;41;20043;-76
2021/08/05 05:43:04;;;;;;;4.63;2.13;;;;;;;17.78;68.37;99332.41;2155130;41;20204;-76
2021/08/05 05:44:36;;;;;;;6.20;2.40;;;;;;;17.77;68.25;99333.44;2175446;41;20124;-76
2021/08/05 05:46:08;;;;;;;4.30;2.25;;;;;;;17.79;68.31;99336.78;2175493;41;20082;-76
2021/08/05 05:47:39;;;;;;;5.45;2.70;;;;;;;17.83;68.07;99323.69;2173339;41;20067;-75
2021/08/05 05:49:12;;;;;;;4.95;2.70;;;;;;;17.81;68.32;99326.59;2163839;41;20045;-76
2021/08/05 05:50:44;;;;;;;6.60;2.35;;;;;;;17.80;68.49;99326.81;2172205;41;20044;-77
2021/08/05 05:52:15;;;;;;;4.30;1.98;;;;;;;17.86;68.02;99325.97;2175863;41;20353;-76
2021/08/05 05:53:47;;;;;;;5.07;2.50;;;;;;;17.93;68.18;99334.88;2177669;41;20059;-76
2021/08/05 05:55:19;;;;;;;4.57;2.17;;;;;;;17.95;68.19;99326.59;2176558;41;20032;-76
2021/08/05 05:56:51;;;;;;;4.90;2.65;;;;;;;17.99;67.78;99328.69;2177014;41;20043;-76
2021/08/05 05:58:22;;;;;;;4.15;2.25;;;;;;;17.97;67.89;99321.81;2176843;41;20070;-76
2021/08/05 05:59:53;;;;;;;4.20;2.17;;;;;;;17.95;68.06;99326.59;2163437;41;20071;-76
2021/08/05 06:01:25;;;;;;;6.07;3.35;;;;;;;17.89;67.89;99329.06;2145406;41;20601;-76
2021/08/05 06:02:57;;;;;;;4.50;2.25;;;;;;;17.85;68.19;99330.56;2173931;41;20044;-76
2021/08/05 06:04:29;;;;;;;4.60;2.50;;;;;;;17.82;68.59;99333.66;2176661;41;20052;-76
2021/08/05 06:06:01;;;;;;;5.38;2.30;;;;;;;17.85;68.15;99333.25;2177343;40;20487;-76
2021/08/05 06:07:42;;;;;;;4.57;2.47;;;;;;;17.92;67.92;99328.66;2183243;40;20040;-76
2021/08/05 06:09:13;;;;;;;4.53;2.00;;;;;;;17.97;68.15;99327.22;2181493;40;20044;-77
2021/08/05 06:10:45;;;;;;;6.30;2.30;;;;;;;18.04;67.87;99337.00;2183610;40;20416;-77
2021/08/05 06:12:18;;;;;;;4.55;2.10;;;;;;;18.09;67.73;99322.84;2181741;40;20052;-76
2021/08/05 06:13:50;;;;;;;4.63;2.22;;;;;;;18.15;67.30;99330.09;2178673;40;20032;-76
2021/08/05 06:15:20;;;;;;;4.82;2.40;;;;;;;18.22;67.49;99327.38;2181392;40;20051;-76
2021/08/05 06:16:52;;;;;;;7.38;2.90;;;;;;;18.23;67.51;99329.84;2178998;40;20419;-76
2021/08/05 06:18:24;;;;;;;3.78;2.10;;;;;;;18.19;67.51;99330.50;2181201;40;20047;-76
2021/08/05 06:19:56;;;;;;;6.35;2.25;;;;;;;18.24;67.66;99328.00;2183166;40;20040;-75
2021/08/05 06:21:28;;;;;;;4.78;2.30;;;;;;;18.32;67.06;99327.75;2181652;40;20059;-76
2021/08/05 06:22:59;;;;;;;4.60;2.20;;;;;;;18.35;67.25;99327.34;2183214;40;20059;-76
2021/08/05 06:24:30;;;;;;;5.35;3.25;;;;;;;18.36;67.06;99329.00;2181551;40;20032;-76
2021/08/05 06:26:02;;;;;;;4.50;2.55;;;;;;;18.35;67.10;99326.50;2180782;40;20039;-76
2021/08/05 06:27:34;;;;;;;8.70;2.50;;;;;;;18.33;67.58;99323.16;2179806;40;20055;-76
2021/08/05 06:29:06;;;;;;;5.72;2.42;;;;;;;18.32;67.37;99326.94;2183036;40;20332;-77
2021/08/05 06:30:38;;;;;;;5.45;2.15;;;;;;;18.31;67.42;99330.69;2182377;40;20035;-76
2021/08/05 06:32:09;;;;;;;6.45;2.75;;;;;;;18.29;67.40;99325.47;2179459;40;20275;-76
2021/08/05 06:33:40;;;;;;;5.78;2.30;;;;;;;18.35;67.50;99323.78;2181285;40;20387;-77
2021/08/05 06:35:14;;;;;;;5.95;2.30;;;;;;;18.48;66.92;99322.91;2179278;40;20032;-77
2021/08/05 06:36:45;;;;;;;6.65;2.67;;;;;;;18.57;66.78;99318.91;2184721;40;20035;-77
2021/08/05 06:38:17;;;;;;;6.15;2.67;;;;;;;18.64;66.64;99321.59;2182836;40;20063;-77
2021/08/05 06:39:48;;;;;;;17.40;2.90;;;;;;;18.66;66.37;99316.81;2178801;40;20056;-77
2021/08/05 06:41:20;;;;;;;7.35;2.88;;;;;;;18.66;66.21;99319.50;2180945;40;20055;-76
2021/08/05 06:42:51;;;;;;;5.88;2.70;;;;;;;18.57;66.11;99324.31;2181957;40;20051;-77
2021/08/05 06:44:22;;;;;;;5.13;2.25;;;;;;;18.51;66.49;99320.63;2179815;40;20063;-77
2021/08/05 06:45:54;;;;;;;4.57;1.92;;;;;;;18.54;66.22;99330.19;2182969;40;20076;-77
2021/08/05 06:47:25;;;;;;;4.75;2.17;;;;;;;18.67;65.88;99327.41;2180679;40;20032;-76
2021/08/05 06:48:57;;;;;;;6.05;3.00;;;;;;;18.79;65.85;99327.59;2180799;40;20428;-77
2021/08/05 06:50:30;;;;;;;5.32;2.53;;;;;;;18.77;65.66;99320.69;2181147;40;20066;-76
2021/08/05 06:52:02;;;;;;;4.35;2.50;;;;;;;18.80;65.68;99323.81;2180234;40;20415;-77
2021/08/05 06:53:34;;;;;;;5.85;3.20;;;;;;;18.76;66.07;99321.75;2161059;41;20473;-77
2021/08/05 06:55:07;;;;;;;5.35;2.70;;;;;;;18.69;66.31;99322.63;2179870;40;20389;-77
2021/08/05 06:56:39;;;;;;;5.65;2.60;;;;;;;18.67;65.79;99319.28;2180289;40;20082;-76
2021/08/05 06:58:10;;;;;;;7.30;2.78;;;;;;;18.64;66.08;99314.31;2179871;40;20062;-77
2021/08/05 06:59:42;;;;;;;5.28;2.95;;;;;;;18.65;66.24;99317.84;2180273;40;20047;-76
2021/08/05 07:01:14;;;;;;;5.32;2.65;;;;;;;18.71;66.36;99317.81;2179279;40;20055;-76
2021/08/05 07:02:45;;;;;;;10.55;3.35;;;;;;;18.81;66.29;99317.34;2179249;40;20344;-77
2021/08/05 07:04:17;;;;;;;6.05;2.97;;;;;;;18.99;65.40;99315.81;2178669;40;20443;-77
2021/08/05 07:05:50;;;;;;;8.15;2.80;;;;;;;19.02;65.15;99318.94;2178269;40;20108;-77
2021/08/05 07:07:22;;;;;;;4.80;2.28;;;;;;;19.06;65.20;99316.63;2181017;40;20059;-77
2021/08/05 07:08:53;;;;;;;6.60;3.00;;;;;;;18.99;65.07;99305.81;2181911;40;20345;-76
2021/08/05 07:10:25;;;;;;;6.90;2.22;;;;;;;18.95;65.40;99320.03;2179121;40;20047;-77
2021/08/05 07:11:56;;;;;;;4.28;2.30;;;;;;;19.01;65.06;99308.31;2181488;40;20036;-76
2021/08/05 07:13:28;;;;;;;6.60;2.63;;;;;;;19.09;64.84;99313.47;2181577;40;20063;-77
2021/08/05 07:15:00;;;;;;;7.53;2.60;;;;;;;19.11;64.84;99313.25;2184176;40;20059;-76